Time;durP1;ratioP1;P1;durP2;ratioP2;P2;SDS_P1;SDS_P2;PMS_P1;PMS_P2;Temp;Humidity;BMP_temperature;BMP_pressure;BME280_temperature;BME280_humidity;BME280_pressure;Samples;Min_cycle;Max_cycle;Signal;HPM_P1;HPM_P2
2021/12/04 00:01:21;;;;;;;;;;;;;;;3.23;100.00;99971.66;5056112;28;19932;-51
2021/12/04 00:03:48;;;;;;;;;;;;;;;3.13;100.00;99973.88;5055379;28;20441;-47
2021/12/04 00:06:24;;;;;;;;;;;;;;;3.13;100.00;99970.44;5085312;28;20363;-48
2021/12/04 00:08:51;;;;;;;;;;;;;;;3.13;100.00;99960.88;5053310;28;19928;-54
2021/12/04 00:11:17;;;;;;;;;;;;;;;3.10;100.00;99960.19;5051579;28;19933;-54
2021/12/04 00:13:44;;;;;;;;;;;;;;;3.14;100.00;99952.16;5052631;28;19936;-55
2021/12/04 00:16:11;;;;;;;;;;;;;;;3.16;100.00;99952.09;5050806;28;19931;-46
2021/12/04 00:18:38;;;;;;;;;;;;;;;3.13;100.00;99947.88;5052631;28;19998;-47
2021/12/04 00:21:05;;;;;;;;;;;;;;;3.19;100.00;99945.00;5054454;28;20391;-55
2021/12/04 00:23:31;;;;;;;;;;;;;;;3.20;100.00;99951.88;5053629;28;19925;-52
2021/12/04 00:25:58;;;;;;;;;;;;;;;3.18;100.00;99945.06;5053011;28;20311;-56
2021/12/04 00:28:25;;;;;;;;;;;;;;;3.27;100.00;99935.97;5054236;28;20046;-50
2021/12/04 00:30:53;;;;;;;;;;;;;;;3.28;100.00;99943.69;5052875;28;19928;-55
2021/12/04 00:33:22;;;;;;;;;;;;;;;3.30;100.00;99938.41;5052712;28;19933;-54
2021/12/04 00:35:57;;;;;;;;;;;;;;;3.24;100.00;99939.56;5084930;28;19931;-55
2021/12/04 00:49:19;;;;;;;;;;;;;;;3.29;100.00;99941.94;5082314;28;19969;-51
2021/12/04 00:51:50;;;;;;;;;;;;;;;3.26;100.00;99942.94;5051905;28;19925;-49
2021/12/04 00:54:17;;;;;;;;;;;;;;;3.28;100.00;99940.25;5052533;28;20371;-47
2021/12/04 00:56:44;;;;;;;;;;;;;;;3.31;100.00;99942.69;5051772;28;20823;-47
2021/12/04 00:59:11;;;;;;;;;;;;;;;3.21;100.00;99937.13;5052468;28;19925;-48
2021/12/04 01:01:39;;;;;;;;;;;;;;;3.22;100.00;99936.22;5050722;28;20395;-48
2021/12/04 01:04:09;;;;;;;;;;;;;;;3.27;100.00;99942.00;5051771;28;19982;-49
2021/12/04 01:06:36;;;;;;;;;;;;;;;3.28;100.00;99932.47;5053084;28;19925;-50
2021/12/04 01:09:04;;;;;;;;;;;;;;;3.28;100.00;99924.66;5087256;28;19978;-51
2021/12/04 01:11:31;;;;;;;;;;;;;;;3.16;100.00;99928.69;5086944;28;19929;-49
2021/12/04 01:13:58;;;;;;;;;;;;;;;3.15;100.00;99925.28;5054670;28;19936;-49
2021/12/04 01:16:24;;;;;;;;;;;;;;;3.15;100.00;99924.41;5050927;28;20446;-55
2021/12/04 01:18:51;;;;;;;;;;;;;;;3.15;100.00;99933.06;5052615;28;19925;-55
2021/12/04 01:21:18;;;;;;;;;;;;;;;3.16;100.00;99929.56;5053456;28;19936;-55
2021/12/04 01:23:44;;;;;;;;;;;;;;;3.18;100.00;99932.91;5050489;28;19982;-53
2021/12/04 01:26:11;;;;;;;;;;;;;;;3.14;100.00;99931.38;5053659;28;19995;-55
2021/12/04 01:28:38;;;;;;;;;;;;;;;3.16;100.00;99936.50;5050892;28;20653;-54
2021/12/04 01:31:04;;;;;;;;;;;;;;;3.21;100.00;99937.94;5082261;28;20387;-55
2021/12/04 01:33:31;;;;;;;;;;;;;;;3.24;100.00;99934.38;5049439;28;20380;-55
2021/12/04 01:35:57;;;;;;;;;;;;;;;3.19;100.00;99929.41;5050419;28;19924;-49
2021/12/04 01:38:24;;;;;;;;;;;;;;;3.21;100.00;99937.94;5049372;28;19925;-51
2021/12/04 01:40:52;;;;;;;;;;;;;;;3.15;100.00;99927.00;5051576;28;19925;-52
2021/12/04 01:43:18;;;;;;;;;;;;;;;3.19;100.00;99933.75;5053804;28;19924;-51
2021/12/04 01:45:45;;;;;;;;;;;;;;;3.15;100.00;99925.28;5049768;28;19936;-50
2021/12/04 01:48:12;;;;;;;;;;;;;;;3.13;100.00;99919.28;5049831;28;19924;-47
2021/12/04 01:50:38;;;;;;;;;;;;;;;3.14;100.00;99913.19;5051215;28;20315;-48
2021/12/04 01:53:06;;;;;;;;;;;;;;;3.16;100.00;99907.91;5050478;28;19929;-50
2021/12/04 01:55:36;;;;;;;;;;;;;;;3.18;100.00;99904.31;5081590;28;19925;-47
2021/12/04 01:58:03;;;;;;;;;;;;;;;3.12;100.00;99907.25;5052828;28;19931;-49
2021/12/04 02:00:34;;;;;;;;;;;;;;;3.09;100.00;99909.97;5052046;28;19963;-51
2021/12/04 02:03:03;;;;;;;;;;;;;;;3.13;100.00;99903.72;5048714;28;20340;-46
2021/12/04 02:05:30;;;;;;;;;;;;;;;3.14;100.00;99905.41;5050568;28;19935;-47
2021/12/04 02:07:57;;;;;;;;;;;;;;;3.13;100.00;99908.06;5084827;28;19925;-47
2021/12/04 02:10:24;;;;;;;;;;;;;;;3.15;100.00;99906.22;5074721;28;19925;-49
2021/12/04 02:12:51;;;;;;;;;;;;;;;3.15;100.00;99886.31;5051099;28;19928;-48
2021/12/04 02:15:18;;;;;;;;;;;;;;;3.15;100.00;99883.69;5053384;28;19951;-54
2021/12/04 02:17:49;;;;;;;;;;;;;;;3.16;100.00;99884.53;5048700;28;19932;-48
2021/12/04 02:20:20;;;;;;;;;;;;;;;3.13;100.00;99875.13;5049276;28;19978;-54
2021/12/04 02:22:47;;;;;;;;;;;;;;;3.17;100.00;99866.25;5050313;28;19925;-56
2021/12/04 02:25:14;;;;;;;;;;;;;;;3.25;100.00;99865.88;5053213;28;20015;-54
2021/12/04 02:27:40;;;;;;;;;;;;;;;3.20;100.00;99855.72;5053453;28;19932;-55
2021/12/04 02:30:08;;;;;;;;;;;;;;;3.19;100.00;99850.59;5053674;28;19925;-47
2021/12/04 02:32:35;;;;;;;;;;;;;;;3.11;100.00;99848.41;5053211;28;19978;-55
2021/12/04 02:35:02;;;;;;;;;;;;;;;3.16;100.00;99850.75;5085284;28;19971;-47
2021/12/04 02:37:28;;;;;;;;;;;;;;;3.20;100.00;99847.94;5085256;28;19978;-53
2021/12/04 02:39:59;;;;;;;;;;;;;;;3.23;100.00;99841.72;5051770;28;19974;-47
2021/12/04 02:42:30;;;;;;;;;;;;;;;3.22;100.00;99840.06;5052774;28;19925;-54
2021/12/04 02:44:58;;;;;;;;;;;;;;;3.22;100.00;99840.88;5082679;28;19929;-48
2021/12/04 02:47:25;;;;;;;;;;;;;;;3.18;100.00;99834.16;5081723;28;20379;-49
2021/12/04 02:49:52;;;;;;;;;;;;;;;3.20;100.00;99842.75;5081945;28;19925;-52
2021/12/04 02:52:19;;;;;;;;;;;;;;;3.17;100.00;99834.25;5050460;28;20020;-54
2021/12/04 02:54:46;;;;;;;;;;;;;;;3.19;100.00;99827.19;5050370;28;19925;-51
2021/12/04 02:57:15;;;;;;;;;;;;;;;3.11;100.00;99822.41;5081938;28;19928;-52
2021/12/04 02:59:42;;;;;;;;;;;;;;;3.10;100.00;99825.09;5081071;28;19925;-51
2021/12/04 03:02:22;;;;;;;;;;;;;;;3.10;100.00;99820.72;5081813;28;19929;-55
2021/12/04 03:04:55;;;;;;;;;;;;;;;3.09;100.00;99829.44;5050266;28;19998;-53
2021/12/04 03:07:21;;;;;;;;;;;;;;;3.11;100.00;99822.41;5084977;28;19929;-56
2021/12/04 03:09:51;;;;;;;;;;;;;;;3.11;100.00;99812.03;5051682;28;19933;-51
2021/12/04 03:12:23;;;;;;;;;;;;;;;3.14;100.00;99811.03;5082337;28;19924;-55
2021/12/04 03:14:50;;;;;;;;;;;;;;;3.26;100.00;99809.53;5083135;28;19925;-52
2021/12/04 03:17:19;;;;;;;;;;;;;;;3.19;100.00;99809.88;5052337;28;19928;-51
2021/12/04 03:19:47;;;;;;;;;;;;;;;3.19;100.00;99809.88;5052441;28;19931;-56
2021/12/04 03:22:15;;;;;;;;;;;;;;;3.15;100.00;99807.50;5051305;28;19975;-56
2021/12/04 03:24:43;;;;;;;;;;;;;;;3.12;100.00;99808.50;5081725;28;20375;-56
2021/12/04 03:27:10;;;;;;;;;;;;;;;3.15;100.00;99800.56;5049992;28;19931;-50
2021/12/04 03:29:49;;;;;;;;;;;;;;;3.16;100.00;99804.84;5051907;28;19925;-52
2021/12/04 03:43:16;;;;;;;;;;;;;;;3.29;100.00;99786.00;5056394;28;19925;-55
2021/12/04 03:45:45;;;;;;;;;;;;;;;3.30;100.00;99783.34;5056401;28;19959;-52
2021/12/04 03:48:58;;;;;;;;;;;;;;;3.29;100.00;99783.41;5056445;28;19925;-56
2021/12/04 03:51:00;;;;;;;;;;;;;;;3.32;100.00;99775.44;5076217;28;20314;-51
2021/12/04 03:53:27;;;;;;;;;;;;;;;3.29;100.00;99776.44;5056709;28;19925;-53
2021/12/04 03:55:54;;;;;;;;;;;;;;;3.34;100.00;99773.59;5055006;28;19929;-50
2021/12/04 03:58:21;;;;;;;;;;;;;;;3.37;100.00;99773.47;5054388;28;19925;-50
2021/12/04 04:00:48;;;;;;;;;;;;;;;3.37;100.00;99773.47;5053927;28;20511;-51
2021/12/04 04:03:15;;;;;;;;;;;;;;;3.38;100.00;99770.78;5056264;28;20090;-51
2021/12/04 04:05:42;;;;;;;;;;;;;;;3.41;100.00;99781.91;5055155;28;19931;-51
2021/12/04 04:08:11;;;;;;;;;;;;;;;3.42;100.00;99768.00;5053183;28;19956;-55
2021/12/04 04:10:38;;;;;;;;;;;;;;;3.33;100.00;99762.38;5052964;28;19925;-49
2021/12/04 04:13:08;;;;;;;;;;;;;;;3.37;100.00;99757.88;5055618;28;19924;-56
2021/12/04 04:15:34;;;;;;;;;;;;;;;3.36;100.00;99758.78;5055894;28;19924;-52
2021/12/04 04:18:01;;;;;;;;;;;;;;;3.36;100.00;99758.78;5055800;28;19955;-55
2021/12/04 04:20:28;;;;;;;;;;;;;;;3.34;100.00;99758.88;5055999;28;19929;-50
2021/12/04 04:22:55;;;;;;;;;;;;;;;3.38;100.00;99762.97;5054544;28;19924;-56
2021/12/04 04:25:22;;;;;;;;;;;;;;;3.43;100.00;99764.50;5053482;28;19929;-56
2021/12/04 04:27:49;;;;;;;;;;;;;;;3.42;100.00;99753.25;5054783;28;19932;-51
2021/12/04 04:30:16;;;;;;;;;;;;;;;3.45;100.00;99747.03;5055695;28;19928;-53
2021/12/04 04:32:44;;;;;;;;;;;;;;;3.41;100.00;99751.59;5054320;28;19925;-56
2021/12/04 04:35:16;;;;;;;;;;;;;;;3.40;100.00;99749.91;5055706;28;20051;-53
2021/12/04 04:57:32;;;;;;;;;;;;;;;3.40;100.00;99742.09;5051582;28;19929;-55
2021/12/04 05:10:14;;;;;;;;;;;;;;;3.34;100.00;99739.81;5053205;28;20390;-57
2021/12/04 05:13:23;;;;;;;;;;;;;;;3.38;100.00;99741.31;5081322;28;19925;-57
2021/12/04 05:21:04;;;;;;;;;;;;;;;3.34;100.00;99732.00;5051351;28;20368;-48
2021/12/04 05:23:32;;;;;;;;;;;;;;;3.36;100.00;99727.59;5052002;28;20444;-56
2021/12/04 05:25:58;;;;;;;;;;;;;;;3.36;100.00;99725.81;5051989;28;19978;-56
2021/12/04 05:28:26;;;;;;;;;;;;;;;3.46;100.00;99722.72;5054504;28;19987;-55
2021/12/04 05:30:53;;;;;;;;;;;;;;;3.39;100.00;99706.63;5053193;28;19928;-52
2021/12/04 05:33:20;;;;;;;;;;;;;;;3.41;100.00;99715.19;5051782;28;20027;-52
2021/12/04 05:35:48;;;;;;;;;;;;;;;3.37;100.00;99698.91;5052664;28;19929;-48
2021/12/04 05:38:15;;;;;;;;;;;;;;;3.39;100.00;99701.44;5054318;28;20372;-49
2021/12/04 05:40:42;;;;;;;;;;;;;;;3.35;100.00;99697.31;5054292;28;19928;-55
2021/12/04 05:43:09;;;;;;;;;;;;;;;3.30;100.00;99696.72;5054247;28;20291;-48
2021/12/04 05:45:48;;;;;;;;;;;;;;;3.29;100.00;99705.44;5054215;28;19924;-47
2021/12/04 05:48:24;;;;;;;;;;;;;;;3.23;100.00;99706.59;5052158;28;20035;-55
2021/12/04 05:51:13;;;;;;;;;;;;;;;3.27;100.00;99702.06;5051391;28;19936;-47
2021/12/04 05:56:30;;;;;;;;;;;;;;;3.27;100.00;99707.28;5049733;28;20395;-49
2021/12/04 05:58:57;;;;;;;;;;;;;;;3.28;100.00;99709.78;5066455;28;19929;-52
2021/12/04 06:01:24;;;;;;;;;;;;;;;3.30;100.00;99707.09;5082776;28;19964;-56
2021/12/04 06:03:51;;;;;;;;;;;;;;;3.27;100.00;99712.47;5053695;28;20380;-45
2021/12/04 06:06:18;;;;;;;;;;;;;;;3.34;100.00;99706.03;5085946;28;19975;-55
2021/12/04 06:08:44;;;;;;;;;;;;;;;3.35;100.00;99705.09;5053572;28;19928;-56
2021/12/04 06:11:11;;;;;;;;;;;;;;;3.36;100.00;99699.00;5052967;28;20383;-57
2021/12/04 06:13:38;;;;;;;;;;;;;;;3.39;100.00;99696.22;5053644;28;19925;-47
2021/12/04 06:16:04;;;;;;;;;;;;;;;3.37;100.00;99693.72;5053500;28;20038;-52
2021/12/04 06:18:32;;;;;;;;;;;;;;;3.38;100.00;99704.94;5050437;28;20010;-48
2021/12/04 06:23:44;;;;;;;;;;;;;;;3.45;100.00;99697.66;5050565;28;19929;-57
2021/12/04 06:26:11;;;;;;;;;;;;;;;3.37;100.00;99692.88;5066086;28;20342;-56
2021/12/04 06:28:38;;;;;;;;;;;;;;;3.41;100.00;99698.75;5052839;28;19952;-57
2021/12/04 06:31:07;;;;;;;;;;;;;;;3.40;100.00;99694.50;5048561;28;19924;-53
2021/12/04 06:33:34;;;;;;;;;;;;;;;3.34;100.00;99695.63;5051105;28;19940;-56
2021/12/04 06:36:00;;;;;;;;;;;;;;;3.38;100.00;99699.75;5053145;28;19925;-55
2021/12/04 06:38:27;;;;;;;;;;;;;;;3.33;100.00;99691.38;5085062;28;19975;-55
2021/12/04 06:40:57;;;;;;;;;;;;;;;3.34;100.00;99693.88;5052778;28;20212;-53
2021/12/04 06:43:25;;;;;;;;;;;;;;;3.42;100.00;99697.81;5052881;28;19924;-51
2021/12/04 06:46:02;;;;;;;;;;;;;;;3.35;100.00;99699.91;5049122;28;20107;-54
2021/12/04 06:49:19;;;;;;;;;;;;;;;3.41;100.00;99693.53;5049776;28;20398;-56
2021/12/04 06:51:34;;;;;;;;;;;;;;;3.46;100.00;99687.16;5048335;28;19931;-54
2021/12/04 06:54:08;;;;;;;;;;;;;;;3.54;100.00;99695.41;5053243;28;19925;-54
2021/12/04 06:56:36;;;;;;;;;;;;;;;3.50;100.00;99688.69;5083123;28;19932;-55
2021/12/04 06:59:07;;;;;;;;;;;;;;;3.52;100.00;99691.22;5052943;28;19986;-50
2021/12/04 07:01:34;;;;;;;;;;;;;;;3.51;100.00;99689.53;5053008;28;19925;-55
2021/12/04 07:04:01;;;;;;;;;;;;;;;3.47;100.00;99682.81;5052899;28;20674;-56
2021/12/04 07:06:28;;;;;;;;;;;;;;;3.48;100.00;99676.72;5052693;28;19931;-56
2021/12/04 07:08:56;;;;;;;;;;;;;;;3.60;100.00;99675.19;5052799;28;20378;-52
2021/12/04 07:11:23;;;;;;;;;;;;;;;3.53;100.00;99672.94;5051473;28;19932;-52
2021/12/04 07:13:50;;;;;;;;;;;;;;;3.50;100.00;99667.88;5049923;28;19929;-57
2021/12/04 07:16:22;;;;;;;;;;;;;;;3.54;100.00;99673.75;5048059;28;19936;-57
2021/12/04 07:18:50;;;;;;;;;;;;;;;3.51;100.00;99666.97;5048952;28;20028;-55
2021/12/04 07:21:17;;;;;;;;;;;;;;;3.51;100.00;99674.75;5048579;28;19982;-57
2021/12/04 07:23:43;;;;;;;;;;;;;;;3.52;100.00;99668.66;5050622;28;19924;-57
2021/12/04 07:26:10;;;;;;;;;;;;;;;3.52;100.00;99671.25;5052609;28;20391;-50
2021/12/04 07:28:37;;;;;;;;;;;;;;;3.48;100.00;99669.75;5052618;28;19925;-54
2021/12/04 07:31:04;;;;;;;;;;;;;;;3.46;100.00;99676.78;5052354;28;19925;-50
2021/12/04 07:33:31;;;;;;;;;;;;;;;3.52;100.00;99676.44;5067173;28;19947;-57
2021/12/04 07:35:57;;;;;;;;;;;;;;;3.43;100.00;99676.94;5082171;28;19925;-55
2021/12/04 07:38:24;;;;;;;;;;;;;;;3.46;100.00;99686.34;5049631;28;19924;-56
2021/12/04 07:40:52;;;;;;;;;;;;;;;3.45;100.00;99685.50;5049643;28;19925;-54
2021/12/04 07:43:18;;;;;;;;;;;;;;;3.41;100.00;99678.81;5049423;28;20011;-54
2021/12/04 07:45:45;;;;;;;;;;;;;;;3.52;100.00;99676.44;5051627;28;20271;-50
2021/12/04 07:48:12;;;;;;;;;;;;;;;3.56;100.00;99679.72;5052450;28;20337;-56
2021/12/04 07:50:38;;;;;;;;;;;;;;;3.60;100.00;99678.66;5052340;28;19925;-54
2021/12/04 07:53:05;;;;;;;;;;;;;;;3.54;100.00;99678.97;5050668;28;19929;-54
2021/12/04 07:55:32;;;;;;;;;;;;;;;3.54;100.00;99684.16;5049370;28;19956;-48
2021/12/04 07:57:59;;;;;;;;;;;;;;;3.59;100.00;99684.75;5049834;28;20278;-51
2021/12/04 08:00:26;;;;;;;;;;;;;;;3.54;100.00;99682.41;5052156;28;19947;-48
2021/12/04 08:02:53;;;;;;;;;;;;;;;3.54;100.00;99679.81;5052291;28;19929;-53
2021/12/04 08:05:20;;;;;;;;;;;;;;;3.51;100.00;99690.38;5052778;28;19929;-51
2021/12/04 08:07:47;;;;;;;;;;;;;;;3.50;100.00;99680.06;5052223;28;20311;-54
2021/12/04 08:10:15;;;;;;;;;;;;;;;3.56;100.00;99677.13;5052100;28;20062;-57
2021/12/04 08:12:42;;;;;;;;;;;;;;;3.57;100.00;99683.16;5049728;28;19929;-55
2021/12/04 08:15:10;;;;;;;;;;;;;;;3.62;100.00;99676.78;5048625;28;19935;-56
2021/12/04 08:17:38;;;;;;;;;;;;;;;3.62;100.00;99671.59;5050116;28;20367;-56
2021/12/04 08:20:05;;;;;;;;;;;;;;;3.68;100.00;99673.84;5054931;28;19929;-56
2021/12/04 08:22:34;;;;;;;;;;;;;;;3.65;100.00;99667.97;5052854;28;19925;-56
2021/12/04 08:25:00;;;;;;;;;;;;;;;3.67;100.00;99671.34;5084898;28;19974;-51
2021/12/04 08:27:27;;;;;;;;;;;;;;;3.63;100.00;99667.25;5053112;28;20306;-51
2021/12/04 08:29:54;;;;;;;;;;;;;;;3.65;100.00;99673.19;5055577;28;19929;-56
2021/12/04 08:32:24;;;;;;;;;;;;;;;3.64;100.00;99667.16;5051447;28;19940;-56
2021/12/04 08:34:51;;;;;;;;;;;;;;;3.60;100.00;99673.44;5053602;28;19974;-55
2021/12/04 08:37:18;;;;;;;;;;;;;;;3.64;100.00;99677.56;5053789;28;19929;-52
2021/12/04 08:39:45;;;;;;;;;;;;;;;3.64;100.00;99674.09;5053114;28;19936;-53
2021/12/04 08:42:12;;;;;;;;;;;;;;;3.67;100.00;99671.34;5052468;28;19929;-51
2021/12/04 08:44:38;;;;;;;;;;;;;;;3.68;100.00;99665.19;5053224;28;19925;-52
2021/12/04 08:47:05;;;;;;;;;;;;;;;3.76;100.00;99655.22;5054490;28;19928;-56
2021/12/04 08:49:32;;;;;;;;;;;;;;;3.73;100.00;99650.19;5052320;28;20563;-56
2021/12/04 08:52:00;;;;;;;;;;;;;;;3.73;100.00;99643.22;5052573;28;19925;-53
2021/12/04 08:54:27;;;;;;;;;;;;;;;3.72;100.00;99632.91;5052731;28;19952;-55
2021/12/04 08:56:53;;;;;;;;;;;;;;;3.69;100.00;99633.06;5052340;28;19925;-55
2021/12/04 08:59:21;;;;;;;;;;;;;;;3.82;100.00;99631.47;5052591;28;19929;-55
2021/12/04 09:01:48;;;;;;;;;;;;;;;3.80;100.00;99629.88;5055099;28;20432;-54
2021/12/04 09:04:17;;;;;;;;;;;;;;;3.82;100.00;99630.66;5055209;28;19952;-48
2021/12/04 09:06:43;;;;;;;;;;;;;;;3.88;100.00;99633.72;5055034;28;19925;-53
2021/12/04 09:09:11;;;;;;;;;;;;;;;3.85;100.00;99635.66;5054946;28;19925;-48
2021/12/04 09:11:41;;;;;;;;;;;;;;;3.84;100.00;99624.41;5055188;28;20410;-56
2021/12/04 09:14:09;;;;;;;;;;;;;;;4.01;100.00;99602.66;5053509;28;19931;-51
2021/12/04 09:16:36;;;;;;;;;;;;;;;3.94;100.00;99598.72;5053880;28;19925;-56
2021/12/04 09:19:03;;;;;;;;;;;;;;;3.96;100.00;99596.88;5054488;28;20023;-51
2021/12/04 09:21:30;;;;;;;;;;;;;;;3.93;100.00;99609.19;5055030;28;20422;-52
2021/12/04 09:24:12;;;;;;;;;;;;;;;3.94;100.00;99597.88;5054513;28;19985;-55
2021/12/04 09:26:47;;;;;;;;;;;;;;;4.10;100.00;99603.03;5054620;28;19928;-55
2021/12/04 09:29:32;;;;;;;;;;;;;;;4.09;100.00;99599.63;5051992;28;19955;-57
2021/12/04 09:40:18;;;;;;;;;;;;;;;4.00;100.00;99605.34;5054654;28;19924;-57
2021/12/04 10:18:12;;;;;;;;;;;;;;;4.26;100.00;99556.16;5049740;28;19933;-57
2021/12/04 10:21:31;;;;;;;;;;;;;;;4.22;100.00;99561.50;5051100;28;19932;-57
2021/12/04 10:34:32;;;;;;;;;;;;;;;4.35;100.00;99537.34;5080846;28;19978;-57
2021/12/04 10:37:08;;;;;;;;;;;;;;;4.30;100.00;99529.00;5053267;28;19979;-52
2021/12/04 10:39:35;;;;;;;;;;;;;;;4.20;100.00;99536.53;5052822;28;19924;-53
2021/12/04 10:42:05;;;;;;;;;;;;;;;4.31;100.00;99528.06;5051749;28;19929;-49
2021/12/04 10:44:32;;;;;;;;;;;;;;;4.31;100.00;99526.31;5053390;28;19951;-49
2021/12/04 10:46:59;;;;;;;;;;;;;;;4.34;100.00;99527.88;5052970;28;20011;-53
2021/12/04 10:52:25;;;;;;;;;;;;;;;4.32;100.00;99524.53;5050522;28;20330;-52
2021/12/04 10:55:25;;;;;;;;;;;;;;;4.33;100.00;99523.59;5051639;28;20336;-50
2021/12/04 10:58:45;;;;;;;;;;;;;;;4.38;100.00;99514.59;5045016;28;19932;-50
2021/12/04 11:46:42;;;;;;;;;;;;;;;4.62;100.00;99427.25;5047367;28;19933;-50
2021/12/04 11:49:10;;;;;;;;;;;;;;;4.76;100.00;99429.81;5048419;28;20439;-51
2021/12/04 11:51:43;;;;;;;;;;;;;;;4.76;100.00;99423.75;5048817;28;20407;-48
2021/12/04 11:54:10;;;;;;;;;;;;;;;4.68;100.00;99424.28;5084733;28;19929;-46
2021/12/04 11:56:37;;;;;;;;;;;;;;;4.73;100.00;99427.41;5056391;28;20260;-47
2021/12/04 11:59:04;;;;;;;;;;;;;;;4.63;100.00;99418.50;5086797;28;19929;-47
2021/12/04 12:01:34;;;;;;;;;;;;;;;4.65;100.00;99422.69;5049863;28;19935;-54
2021/12/04 12:04:09;;;;;;;;;;;;;;;4.65;100.00;99424.44;5052444;28;19925;-56
2021/12/04 12:06:37;;;;;;;;;;;;;;;4.53;100.00;99424.28;5050976;28;19936;-56
2021/12/04 12:09:09;;;;;;;;;;;;;;;4.54;100.00;99422.50;5053435;28;19924;-55
2021/12/04 12:11:35;;;;;;;;;;;;;;;4.57;100.00;99414.53;5054004;28;20260;-56
2021/12/04 12:14:06;;;;;;;;;;;;;;;4.55;100.00;99412.03;5052794;28;19967;-48
2021/12/04 12:16:37;;;;;;;;;;;;;;;4.53;100.00;99408.66;5050457;28;19924;-55
2021/12/04 12:19:08;;;;;;;;;;;;;;;4.59;100.00;99410.03;5052440;28;19940;-58
2021/12/04 12:21:52;;;;;;;;;;;;;;;4.59;100.00;99396.19;5087724;28;19925;-58
2021/12/04 12:38:34;;;;;;;;;;;;;;;4.57;100.00;99396.28;5049961;28;19933;-55
2021/12/04 12:41:03;;;;;;;;;;;;;;;4.65;100.00;99390.59;5052070;28;19974;-56
2021/12/04 12:43:39;;;;;;;;;;;;;;;4.63;100.00;99385.47;5054500;28;19978;-51
2021/12/04 12:46:05;;;;;;;;;;;;;;;4.63;100.00;99384.66;5055110;28;19929;-49
2021/12/04 12:48:45;;;;;;;;;;;;;;;4.68;100.00;99383.41;5051410;28;19925;-49
2021/12/04 12:51:12;;;;;;;;;;;;;;;4.69;100.00;99384.25;5051683;28;20020;-55
2021/12/04 12:53:41;;;;;;;;;;;;;;;4.73;100.00;99389.19;5051201;28;20031;-53
2021/12/04 12:56:09;;;;;;;;;;;;;;;4.69;100.00;99379.88;5051017;28;20383;-57
2021/12/04 12:58:53;;;;;;;;;;;;;;;4.63;100.00;99374.22;5083659;28;19928;-49
2021/12/04 13:12:46;;;;;;;;;;;;;;;4.66;100.00;99355.81;5050848;28;19935;-51
2021/12/04 13:15:33;;;;;;;;;;;;;;;4.70;100.00;99350.31;5050280;28;20676;-51
2021/12/04 13:18:10;;;;;;;;;;;;;;;4.65;100.00;99338.50;5051237;28;19975;-49
2021/12/04 13:20:37;;;;;;;;;;;;;;;4.66;100.00;99340.16;5051338;28;19931;-47
2021/12/04 13:23:10;;;;;;;;;;;;;;;4.64;100.00;99344.66;5049277;28;19928;-52
2021/12/04 13:25:37;;;;;;;;;;;;;;;4.63;100.00;99348.19;5050863;28;19936;-50
2021/12/04 13:30:32;;;;;;;;;;;;;;;4.65;100.00;99352.38;5054786;28;19960;-48
2021/12/04 13:32:59;;;;;;;;;;;;;;;4.58;100.00;99343.25;5050817;28;19929;-50
2021/12/04 13:35:25;;;;;;;;;;;;;;;4.65;100.00;99333.28;5082546;28;19932;-51
2021/12/04 13:37:55;;;;;;;;;;;;;;;4.64;100.00;99334.25;5053858;28;20395;-47
2021/12/04 13:40:22;;;;;;;;;;;;;;;4.59;100.00;99336.31;5054495;28;19971;-52
2021/12/04 13:42:49;;;;;;;;;;;;;;;4.50;100.00;99332.50;5054269;28;19925;-48
2021/12/04 13:45:17;;;;;;;;;;;;;;;4.55;100.00;99328.69;5054446;28;20656;-47
2021/12/04 13:47:43;;;;;;;;;;;;;;;4.66;100.00;99332.34;5083766;28;19924;-49
2021/12/04 13:50:44;;;;;;;;;;;;;;;4.65;100.00;99326.31;5050874;28;19975;-50
2021/12/04 13:53:15;;;;;;;;;;;;;;;4.66;100.00;99340.16;5052613;28;19935;-51
2021/12/04 13:55:43;;;;;;;;;;;;;;;4.71;100.00;99340.72;5050107;28;20395;-51
2021/12/04 13:58:09;;;;;;;;;;;;;;;4.69;100.00;99338.22;5082569;28;19925;-47
2021/12/04 14:00:36;;;;;;;;;;;;;;;4.66;100.00;99337.56;5052942;28;20387;-50
2021/12/04 14:03:03;;;;;;;;;;;;;;;4.73;100.00;99336.22;5053601;28;19925;-50
2021/12/04 14:05:30;;;;;;;;;;;;;;;4.72;100.00;99329.38;5050154;28;19970;-48
2021/12/04 14:07:58;;;;;;;;;;;;;;;4.73;100.00;99333.63;5050316;28;19933;-47
2021/12/04 14:10:27;;;;;;;;;;;;;;;4.68;100.00;99333.13;5050780;28;19928;-48
2021/12/04 14:12:54;;;;;;;;;;;;;;;4.76;100.00;99327.38;5049933;28;20339;-48
2021/12/04 14:15:22;;;;;;;;;;;;;;;4.62;100.00;99331.75;5048958;28;19929;-48
2021/12/04 14:17:49;;;;;;;;;;;;;;;4.61;100.00;99331.81;5049551;28;19925;-46
2021/12/04 14:20:20;;;;;;;;;;;;;;;4.65;100.00;99333.28;5065312;28;20667;-56
2021/12/04 14:22:47;;;;;;;;;;;;;;;4.56;100.00;99332.94;5048320;28;19925;-56
2021/12/04 14:25:15;;;;;;;;;;;;;;;4.51;100.00;99332.44;5049790;28;19931;-56
2021/12/04 14:27:41;;;;;;;;;;;;;;;4.55;100.00;99333.06;5049247;28;19983;-48
2021/12/04 14:30:12;;;;;;;;;;;;;;;4.56;100.00;99337.34;5049879;28;20272;-47
2021/12/04 14:32:40;;;;;;;;;;;;;;;4.60;100.00;99338.81;5050365;28;19931;-50
2021/12/04 14:35:10;;;;;;;;;;;;;;;4.61;100.00;99339.63;5052051;28;20287;-51
2021/12/04 14:37:38;;;;;;;;;;;;;;;4.57;100.00;99336.41;5049375;28;19929;-50
2021/12/04 14:40:05;;;;;;;;;;;;;;;4.48;100.00;99332.59;5081303;28;20436;-49
2021/12/04 14:42:32;;;;;;;;;;;;;;;4.51;100.00;99332.44;5048963;28;20441;-52
2021/12/04 14:45:10;;;;;;;;;;;;;;;4.54;100.00;99332.22;5081204;28;19928;-48
2021/12/04 14:47:38;;;;;;;;;;;;;;;4.62;100.00;99341.31;5049099;28;20413;-57
2021/12/04 14:50:05;;;;;;;;;;;;;;;4.61;100.00;99332.66;5083444;28;19956;-56
2021/12/04 14:52:32;;;;;;;;;;;;;;;4.61;100.00;99342.22;5053181;28;19925;-52
2021/12/04 14:55:00;;;;;;;;;;;;;;;4.65;100.00;99336.75;5067914;28;19924;-56
2021/12/04 14:57:28;;;;;;;;;;;;;;;4.65;100.00;99338.50;5080516;28;19929;-54
2021/12/04 15:00:01;;;;;;;;;;;;;;;4.68;100.00;99327.91;5049072;28;19951;-56
2021/12/04 15:02:27;;;;;;;;;;;;;;;4.63;100.00;99343.81;5048803;28;19924;-49
2021/12/04 15:04:55;;;;;;;;;;;;;;;4.66;100.00;99337.56;5064071;28;19929;-48
2021/12/04 15:07:23;;;;;;;;;;;;;;;4.68;100.00;99339.16;5048916;28;19928;-52
2021/12/04 15:09:50;;;;;;;;;;;;;;;4.76;100.00;99356.03;5081315;28;19951;-51
2021/12/04 15:12:43;;;;;;;;;;;;;;;4.74;100.00;99348.31;5048946;28;19931;-52
2021/12/04 15:15:10;;;;;;;;;;;;;;;4.73;100.00;99351.84;5047788;28;20434;-50
2021/12/04 15:17:41;;;;;;;;;;;;;;;4.71;100.00;99362.38;5048538;28;20370;-50
2021/12/04 15:20:17;;;;;;;;;;;;;;;4.73;100.00;99364.88;5048980;28;20524;-48
2021/12/04 15:22:45;;;;;;;;;;;;;;;4.66;100.00;99363.63;5052665;28;19932;-46
2021/12/04 15:25:13;;;;;;;;;;;;;;;4.72;100.00;99360.63;5052304;28;19924;-47
2021/12/04 15:27:41;;;;;;;;;;;;;;;4.76;100.00;99361.25;5084424;28;19978;-46
2021/12/04 15:30:09;;;;;;;;;;;;;;;4.77;100.00;99362.94;5049146;28;19932;-54
2021/12/04 15:32:37;;;;;;;;;;;;;;;4.77;100.00;99371.56;5048406;28;19987;-56
2021/12/04 15:35:17;;;;;;;;;;;;;;;4.80;100.00;99384.41;5048395;28;20387;-56
2021/12/04 15:37:50;;;;;;;;;;;;;;;4.78;100.00;99386.25;5048505;28;20803;-57
2021/12/04 15:40:24;;;;;;;;;;;;;;;4.79;100.00;99387.94;5079332;28;19925;-47
2021/12/04 15:43:06;;;;;;;;;;;;;;;4.78;100.00;99388.03;5048221;28;19924;-48
2021/12/04 15:48:34;;;;;;;;;;;;;;;4.74;100.00;99393.47;5048451;28;19978;-47
2021/12/04 15:54:17;;;;;;;;;;;;;;;4.76;100.00;99395.97;5050411;28;19929;-47
2021/12/04 15:56:47;;;;;;;;;;;;;;;4.78;100.00;99401.91;5046706;28;19928;-47
2021/12/04 15:59:18;;;;;;;;;;;;;;;4.76;100.00;99405.53;5048842;28;19924;-50
2021/12/04 16:01:46;;;;;;;;;;;;;;;4.84;100.00;99403.25;5047330;28;19986;-48
2021/12/04 16:04:23;;;;;;;;;;;;;;;4.80;100.00;99405.25;5047489;28;20442;-48
2021/12/04 16:06:50;;;;;;;;;;;;;;;4.77;100.00;99409.81;5048055;28;20019;-51
2021/12/04 16:09:27;;;;;;;;;;;;;;;4.72;100.00;99407.50;5048430;28;19967;-51
2021/12/04 16:12:01;;;;;;;;;;;;;;;4.77;100.00;99423.66;5051689;28;20489;-48
2021/12/04 16:14:31;;;;;;;;;;;;;;;4.72;100.00;99425.75;5052297;28;20284;-52
2021/12/04 16:16:58;;;;;;;;;;;;;;;4.77;100.00;99426.25;5084221;28;19925;-49
2021/12/04 16:19:27;;;;;;;;;;;;;;;4.76;100.00;99431.56;5052109;28;19956;-49